Time;durP1;ratioP1;P1;durP2;ratioP2;P2;SDS_P1;SDS_P2;PMS_P1;PMS_P2;Temp;Humidity;BMP_temperature;BMP_pressure;BME280_temperature;BME280_humidity;BME280_pressure;Samples;Min_cycle;Max_cycle;Signal;HPM_P1;HPM_P2
2022/05/17 00:00:47;;;;;;;7.05;4.35;;;;;;;;;;5014933;28;20030;-78
2022/05/17 00:03:14;;;;;;;6.95;4.40;;;;;;;;;;5019664;28;20056;-78
2022/05/17 00:05:41;;;;;;;7.88;4.13;;;;;;;;;;5022074;28;20014;-78
2022/05/17 00:08:07;;;;;;;6.70;4.05;;;;;;;;;;5011883;28;20363;-78
2022/05/17 00:10:33;;;;;;;6.53;3.85;;;;;;;;;;5009863;28;20026;-78
2022/05/17 00:12:59;;;;;;;6.63;3.60;;;;;;;;;;5013139;28;20022;-78
2022/05/17 00:15:25;;;;;;;6.03;3.78;;;;;;;;;;5011916;28;20041;-78
2022/05/17 00:17:53;;;;;;;7.05;3.60;;;;;;;;;;5012992;28;20117;-78
2022/05/17 00:20:19;;;;;;;5.32;3.40;;;;;;;;;;5013776;28;20033;-78
2022/05/17 00:22:46;;;;;;;6.65;3.60;;;;;;;;;;5012848;28;20467;-78
2022/05/17 00:25:13;;;;;;;5.78;3.50;;;;;;;;;;5012866;28;20048;-78
2022/05/17 00:27:39;;;;;;;5.43;3.10;;;;;;;;;;5012278;28;20026;-78
2022/05/17 00:30:07;;;;;;;7.63;4.38;;;;;;;;;;5012757;28;20033;-78
2022/05/17 00:32:33;;;;;;;6.25;3.38;;;;;;;;;;5011531;28;20473;-78
2022/05/17 00:34:59;;;;;;;5.43;2.95;;;;;;;;;;5012484;28;20235;-78
2022/05/17 00:37:25;;;;;;;5.97;3.35;;;;;;;;;;5013522;28;20029;-77
2022/05/17 00:39:51;;;;;;;6.63;3.65;;;;;;;;;;5013424;28;20395;-77
2022/05/17 00:42:17;;;;;;;6.15;3.03;;;;;;;;;;5013949;28;20533;-79
2022/05/17 00:44:43;;;;;;;7.00;2.90;;;;;;;;;;5007303;28;20022;-78
2022/05/17 00:47:21;;;;;;;7.15;3.45;;;;;;;;;;5014357;28;20120;-77
2022/05/17 00:50:00;;;;;;;5.07;3.10;;;;;;;;;;5015245;28;20117;-78
2022/05/17 00:52:42;;;;;;;5.57;2.75;;;;;;;;;;5014007;28;20029;-78
2022/05/17 00:55:10;;;;;;;7.15;3.30;;;;;;;;;;5031092;28;20026;-79
2022/05/17 00:57:49;;;;;;;7.05;3.28;;;;;;;;;;5014474;28;20034;-79
2022/05/17 01:00:19;;;;;;;5.70;3.00;;;;;;;;;;5014663;28;20034;-78
2022/05/17 01:02:47;;;;;;;5.95;3.10;;;;;;;;;;5018882;28;20025;-77
2022/05/17 01:05:14;;;;;;;5.25;3.05;;;;;;;;;;5014292;28;20065;-78
2022/05/17 01:07:44;;;;;;;6.38;2.88;;;;;;;;;;5015499;28;20046;-79
2022/05/17 01:10:11;;;;;;;6.80;2.83;;;;;;;;;;5015493;28;20021;-78
2022/05/17 01:12:39;;;;;;;5.80;2.85;;;;;;;;;;5004661;28;20026;-78
2022/05/17 01:15:06;;;;;;;5.25;2.42;;;;;;;;;;5014928;28;20029;-78
2022/05/17 01:17:34;;;;;;;4.80;2.28;;;;;;;;;;5019076;28;20026;-79
2022/05/17 01:20:01;;;;;;;7.35;3.00;;;;;;;;;;5018267;28;20030;-78
2022/05/17 01:22:28;;;;;;;6.65;2.88;;;;;;;;;;5019229;28;20017;-79
2022/05/17 01:24:54;;;;;;;6.20;2.85;;;;;;;;;;5013817;28;20034;-78
2022/05/17 01:27:39;;;;;;;5.70;2.83;;;;;;;;;;5015781;28;20068;-78
2022/05/17 01:30:06;;;;;;;7.32;2.70;;;;;;;;;;5019573;28;20026;-78
2022/05/17 01:32:33;;;;;;;6.18;3.03;;;;;;;;;;5014327;28;20080;-78
2022/05/17 01:34:59;;;;;;;8.90;2.63;;;;;;;;;;5021680;28;20037;-78
2022/05/17 01:37:25;;;;;;;5.18;2.70;;;;;;;;;;5019191;28;20040;-78
2022/05/17 01:39:51;;;;;;;5.72;3.03;;;;;;;;;;5003159;28;20030;-78
2022/05/17 01:42:17;;;;;;;6.03;2.63;;;;;;;;;;4996660;28;20134;-77
2022/05/17 01:44:44;;;;;;;5.30;2.60;;;;;;;;;;5019215;28;20379;-78
2022/05/17 01:47:11;;;;;;;5.95;2.75;;;;;;;;;;5028018;28;20026;-78
2022/05/17 01:49:37;;;;;;;6.53;3.13;;;;;;;;;;5023432;28;20076;-79
2022/05/17 01:52:03;;;;;;;6.47;2.85;;;;;;;;;;5016712;28;20061;-79
2022/05/17 01:54:29;;;;;;;5.70;2.60;;;;;;;;;;5014133;28;20033;-78
2022/05/17 01:56:55;;;;;;;6.38;2.58;;;;;;;;;;5016166;28;20026;-78
2022/05/17 01:59:21;;;;;;;5.03;2.65;;;;;;;;;;5018528;28;20394;-79
2022/05/17 02:01:47;;;;;;;5.65;2.70;;;;;;;;;;5016808;28;20022;-78
2022/05/17 02:04:13;;;;;;;6.68;2.75;;;;;;;;;;5017859;28;20036;-79
2022/05/17 02:06:40;;;;;;;5.35;2.80;;;;;;;;;;5015306;28;20028;-78
2022/05/17 02:09:06;;;;;;;6.32;2.95;;;;;;;;;;4995999;28;20056;-78
2022/05/17 02:11:32;;;;;;;5.30;2.63;;;;;;;;;;5008985;28;20026;-78
2022/05/17 02:13:58;;;;;;;5.93;2.78;;;;;;;;;;5013105;28;20375;-78
2022/05/17 02:16:24;;;;;;;7.95;2.65;;;;;;;;;;5017603;28;20021;-78
2022/05/17 02:18:50;;;;;;;7.40;3.10;;;;;;;;;;5013367;28;20084;-78
2022/05/17 02:21:16;;;;;;;6.25;2.50;;;;;;;;;;5032800;28;20033;-78
2022/05/17 02:23:42;;;;;;;6.40;2.97;;;;;;;;;;5027683;28;20022;-78
2022/05/17 02:26:08;;;;;;;6.70;3.00;;;;;;;;;;5015106;28;20580;-78
2022/05/17 02:28:35;;;;;;;6.93;2.83;;;;;;;;;;5014920;28;20148;-78
2022/05/17 02:31:02;;;;;;;6.20;2.70;;;;;;;;;;5015027;28;20026;-78
2022/05/17 02:33:28;;;;;;;6.88;2.83;;;;;;;;;;5011273;28;20014;-78
2022/05/17 02:35:54;;;;;;;5.50;2.80;;;;;;;;;;5013781;28;20549;-78
2022/05/17 02:38:20;;;;;;;6.55;2.80;;;;;;;;;;5017246;28;20053;-78
2022/05/17 02:40:46;;;;;;;5.63;2.78;;;;;;;;;;5014083;28;20037;-78
2022/05/17 02:43:14;;;;;;;6.07;3.33;;;;;;;;;;5014348;28;20050;-78
2022/05/17 02:45:40;;;;;;;6.07;3.25;;;;;;;;;;5011639;28;20030;-78
2022/05/17 02:48:06;;;;;;;6.22;3.05;;;;;;;;;;5014102;28;20029;-78
2022/05/17 02:50:32;;;;;;;4.68;2.60;;;;;;;;;;5002412;28;20029;-77
2022/05/17 02:52:58;;;;;;;8.13;2.90;;;;;;;;;;5021392;28;20529;-77
2022/05/17 02:55:25;;;;;;;7.63;3.10;;;;;;;;;;4995310;28;20042;-78
2022/05/17 02:57:51;;;;;;;5.95;2.88;;;;;;;;;;5006995;28;20032;-78
2022/05/17 03:00:17;;;;;;;5.88;3.08;;;;;;;;;;4997275;28;20035;-78
2022/05/17 03:02:44;;;;;;;5.88;2.70;;;;;;;;;;4998807;28;20032;-78
2022/05/17 03:05:10;;;;;;;6.43;2.90;;;;;;;;;;5000757;28;20085;-78
2022/05/17 03:07:37;;;;;;;5.80;2.83;;;;;;;;;;5011853;28;20029;-78
2022/05/17 03:10:03;;;;;;;5.03;2.78;;;;;;;;;;5010820;28;20041;-78
2022/05/17 03:12:29;;;;;;;7.05;2.90;;;;;;;;;;4997973;28;20054;-79
2022/05/17 03:14:55;;;;;;;6.00;3.20;;;;;;;;;;4995945;28;20104;-78
2022/05/17 03:17:21;;;;;;;5.22;2.83;;;;;;;;;;4998688;28;20054;-79
2022/05/17 03:19:49;;;;;;;6.45;3.40;;;;;;;;;;5004945;28;20017;-77
2022/05/17 03:22:15;;;;;;;6.78;3.45;;;;;;;;;;5006642;28;20046;-78
2022/05/17 03:24:41;;;;;;;6.85;3.55;;;;;;;;;;5003364;28;20436;-78
2022/05/17 03:27:07;;;;;;;6.45;3.42;;;;;;;;;;5017662;28;20108;-77
2022/05/17 03:29:33;;;;;;;6.53;3.20;;;;;;;;;;5010070;28;20025;-78
2022/05/17 03:32:00;;;;;;;6.32;3.33;;;;;;;;;;5014992;28;20088;-78
2022/05/17 03:34:26;;;;;;;8.15;4.07;;;;;;;;;;5005159;28;20045;-78
2022/05/17 03:36:53;;;;;;;7.15;3.45;;;;;;;;;;4999267;28;20054;-78
2022/05/17 03:39:19;;;;;;;6.40;3.60;;;;;;;;;;5000857;28;20037;-79
2022/05/17 03:41:45;;;;;;;6.25;3.90;;;;;;;;;;4998903;28;20034;-79
2022/05/17 03:44:11;;;;;;;6.82;3.95;;;;;;;;;;5004436;28;20046;-79
2022/05/17 03:46:38;;;;;;;7.05;3.72;;;;;;;;;;5015879;28;20037;-79
2022/05/17 03:49:04;;;;;;;6.28;3.75;;;;;;;;;;5011065;28;20026;-79
2022/05/17 03:51:30;;;;;;;10.00;4.00;;;;;;;;;;4999964;28;20057;-78
2022/05/17 03:53:56;;;;;;;5.85;3.65;;;;;;;;;;5006654;28;20574;-78
2022/05/17 03:56:22;;;;;;;6.93;4.60;;;;;;;;;;5011633;28;20108;-80
2022/05/17 03:58:48;;;;;;;7.93;4.65;;;;;;;;;;5003134;28;20030;-79
2022/05/17 04:01:14;;;;;;;7.85;4.43;;;;;;;;;;4997825;28;20030;-79
2022/05/17 04:03:41;;;;;;;9.15;4.90;;;;;;;;;;5009189;28;20040;-78
2022/05/17 04:06:07;;;;;;;8.82;6.03;;;;;;;;;;5001352;28;20033;-77
2022/05/17 04:08:34;;;;;;;8.48;4.93;;;;;;;;;;5011040;28;20032;-77
2022/05/17 04:11:00;;;;;;;9.90;5.30;;;;;;;;;;5000906;28;20113;-78
2022/05/17 04:13:29;;;;;;;8.00;5.15;;;;;;;;;;5005413;28;20053;-77
2022/05/17 04:15:56;;;;;;;7.28;4.75;;;;;;;;;;5011359;28;20033;-77
2022/05/17 04:18:22;;;;;;;9.70;4.93;;;;;;;;;;5018464;28;20088;-77
2022/05/17 04:20:48;;;;;;;8.55;5.10;;;;;;;;;;5017305;28;20037;-77
2022/05/17 04:23:14;;;;;;;11.50;5.70;;;;;;;;;;5014417;28;20037;-77
2022/05/17 04:25:40;;;;;;;10.13;5.53;;;;;;;;;;5012166;28;20034;-77
2022/05/17 04:28:06;;;;;;;9.30;5.60;;;;;;;;;;5011780;28;20168;-78
2022/05/17 04:30:32;;;;;;;8.98;5.60;;;;;;;;;;5013319;28;20030;-79
2022/05/17 04:33:00;;;;;;;8.32;5.05;;;;;;;;;;5013366;28;20022;-79
2022/05/17 04:35:26;;;;;;;8.15;5.97;;;;;;;;;;5012881;28;20069;-80
2022/05/17 04:37:52;;;;;;;8.35;5.38;;;;;;;;;;5014265;28;20054;-79
2022/05/17 04:40:18;;;;;;;9.45;5.63;;;;;;;;;;5014341;28;20108;-80
2022/05/17 04:42:46;;;;;;;9.07;6.07;;;;;;;;;;5006782;28;20047;-80
2022/05/17 04:45:13;;;;;;;8.93;5.13;;;;;;;;;;4995259;28;20033;-79
2022/05/17 04:47:40;;;;;;;8.60;6.00;;;;;;;;;;5013156;28;20022;-80
2022/05/17 04:50:06;;;;;;;9.80;5.40;;;;;;;;;;5014322;28;20071;-80
2022/05/17 04:52:32;;;;;;;8.57;5.10;;;;;;;;;;5016534;28;20022;-80
2022/05/17 04:54:58;;;;;;;8.15;5.47;;;;;;;;;;5002746;28;20061;-81
2022/05/17 04:57:24;;;;;;;8.32;5.55;;;;;;;;;;5005582;28;20505;-80
2022/05/17 04:59:50;;;;;;;7.28;5.03;;;;;;;;;;4998937;28;20112;-80
2022/05/17 05:02:16;;;;;;;6.80;4.32;;;;;;;;;;5028670;28;20481;-82
2022/05/17 05:04:42;;;;;;;9.32;4.50;;;;;;;;;;5020209;28;20386;-82
2022/05/17 05:07:08;;;;;;;8.00;4.53;;;;;;;;;;5024896;28;20026;-80
2022/05/17 05:09:34;;;;;;;8.88;4.63;;;;;;;;;;5031302;28;20071;-82
2022/05/17 05:12:01;;;;;;;8.63;5.03;;;;;;;;;;5025186;28;20026;-82
2022/05/17 05:14:27;;;;;;;8.43;4.85;;;;;;;;;;5022389;28;20029;-80
2022/05/17 05:16:53;;;;;;;10.32;5.07;;;;;;;;;;5018886;28;20025;-82
2022/05/17 05:19:19;;;;;;;8.57;5.35;;;;;;;;;;5020828;28;20485;-81
2022/05/17 05:21:47;;;;;;;7.60;5.22;;;;;;;;;;5009749;28;20029;-79
2022/05/17 05:24:13;;;;;;;9.32;5.65;;;;;;;;;;5020394;28;20042;-81
2022/05/17 05:26:40;;;;;;;7.72;5.03;;;;;;;;;;5010494;28;20031;-81
2022/05/17 05:29:07;;;;;;;8.52;5.53;;;;;;;;;;4996696;28;20073;-82
2022/05/17 05:31:33;;;;;;;10.20;5.10;;;;;;;;;;4999907;28;20045;-80
2022/05/17 05:34:02;;;;;;;10.68;5.80;;;;;;;;;;5002251;28;20037;-81
2022/05/17 05:36:28;;;;;;;7.80;5.53;;;;;;;;;;5016691;28;20025;-81
2022/05/17 05:38:57;;;;;;;9.07;5.00;;;;;;;;;;4997820;28;20033;-80
2022/05/17 05:41:23;;;;;;;9.35;5.65;;;;;;;;;;5004126;28;20053;-79
2022/05/17 05:43:49;;;;;;;8.55;5.60;;;;;;;;;;5013289;28;20057;-79
2022/05/17 05:46:16;;;;;;;7.53;5.13;;;;;;;;;;5011713;28;20126;-80
2022/05/17 05:48:42;;;;;;;9.38;5.60;;;;;;;;;;5017094;28;20124;-81
2022/05/17 05:51:08;;;;;;;7.22;5.30;;;;;;;;;;5015794;28;20033;-81
2022/05/17 05:53:34;;;;;;;7.63;5.00;;;;;;;;;;5010813;28;20042;-80
2022/05/17 05:56:05;;;;;;;9.02;5.70;;;;;;;;;;5013193;28;20152;-79
2022/05/17 05:58:35;;;;;;;8.88;5.78;;;;;;;;;;5013621;28;20029;-80
2022/05/17 06:01:01;;;;;;;8.63;5.65;;;;;;;;;;5011279;28;20026;-80
2022/05/17 06:03:28;;;;;;;7.80;5.93;;;;;;;;;;5010445;28;20056;-80
2022/05/17 06:05:54;;;;;;;9.77;6.20;;;;;;;;;;5014757;28;20040;-80
2022/05/17 06:08:21;;;;;;;8.85;5.57;;;;;;;;;;5017264;28;20026;-80
2022/05/17 06:10:48;;;;;;;8.02;5.65;;;;;;;;;;5016305;28;20026;-79
2022/05/17 06:13:14;;;;;;;9.70;6.05;;;;;;;;;;5016888;28;20034;-80
2022/05/17 06:15:40;;;;;;;9.18;6.07;;;;;;;;;;5016915;28;20088;-81
2022/05/17 06:18:07;;;;;;;8.80;5.28;;;;;;;;;;5007389;28;20031;-79
2022/05/17 06:20:34;;;;;;;8.93;6.10;;;;;;;;;;5010251;28;20375;-80
2022/05/17 06:23:00;;;;;;;8.23;6.10;;;;;;;;;;5007283;28;20093;-80
2022/05/17 06:25:27;;;;;;;8.38;5.90;;;;;;;;;;5007833;28;20039;-78
2022/05/17 06:27:53;;;;;;;9.68;6.18;;;;;;;;;;5009917;28;20018;-79
2022/05/17 06:30:19;;;;;;;9.05;5.93;;;;;;;;;;5024006;28;20440;-79
2022/05/17 06:32:45;;;;;;;8.98;5.55;;;;;;;;;;5022514;28;20032;-78
2022/05/17 06:35:12;;;;;;;9.00;5.97;;;;;;;;;;5020697;28;20030;-79
2022/05/17 06:37:38;;;;;;;8.35;5.88;;;;;;;;;;5019697;28;20022;-78
2022/05/17 06:40:05;;;;;;;14.48;6.22;;;;;;;;;;5019320;28;20061;-77
2022/05/17 06:42:32;;;;;;;8.48;6.05;;;;;;;;;;5019249;28;20100;-78
2022/05/17 06:44:58;;;;;;;9.00;6.15;;;;;;;;;;5035500;28;20435;-79
2022/05/17 06:47:26;;;;;;;9.85;5.93;;;;;;;;;;5023701;28;20087;-79
2022/05/17 06:49:52;;;;;;;7.95;6.03;;;;;;;;;;5006111;28;20014;-78
2022/05/17 06:52:18;;;;;;;10.68;6.75;;;;;;;;;;5015328;28;20026;-79
2022/05/17 06:54:45;;;;;;;8.57;6.15;;;;;;;;;;5005953;28;20081;-78
2022/05/17 06:57:12;;;;;;;8.75;5.85;;;;;;;;;;5017180;28;20030;-78
2022/05/17 06:59:40;;;;;;;10.25;6.57;;;;;;;;;;5025017;28;20085;-77
2022/05/17 07:02:07;;;;;;;10.18;6.43;;;;;;;;;;5023354;28;20040;-79
2022/05/17 07:04:34;;;;;;;9.50;6.70;;;;;;;;;;5005716;28;20113;-78
2022/05/17 07:07:00;;;;;;;12.98;6.65;;;;;;;;;;5018293;28;20560;-78
2022/05/17 07:09:27;;;;;;;11.10;6.75;;;;;;;;;;4995248;28;20026;-77
2022/05/17 07:14:39;;;;;;;10.38;6.65;;;;;;;;;;5004910;28;20150;-78
2022/05/17 07:17:06;;;;;;;8.65;6.22;;;;;;;;;;4995449;28;20030;-78
2022/05/17 07:19:39;;;;;;;11.27;6.95;;;;;;;;;;5009024;28;20116;-77
2022/05/17 07:22:06;;;;;;;12.52;7.85;;;;;;;;;;5009810;28;20026;-78
2022/05/17 07:24:33;;;;;;;12.15;7.07;;;;;;;;;;5013785;28;20026;-80
2022/05/17 07:27:00;;;;;;;9.68;6.53;;;;;;;;;;5009834;28;20129;-78
2022/05/17 07:29:26;;;;;;;11.80;6.75;;;;;;;;;;5012710;28;20029;-78
2022/05/17 07:31:52;;;;;;;10.52;7.25;;;;;;;;;;5014732;28;20105;-79
2022/05/17 07:34:18;;;;;;;11.38;7.50;;;;;;;;;;5007823;28;20097;-79
2022/05/17 07:36:45;;;;;;;11.95;7.30;;;;;;;;;;4995382;28;20398;-79
2022/05/17 07:39:11;;;;;;;9.68;7.10;;;;;;;;;;4998309;28;20034;-79
2022/05/17 07:41:37;;;;;;;9.23;6.88;;;;;;;;;;5002221;28;20111;-81
2022/05/17 07:44:04;;;;;;;10.35;7.32;;;;;;;;;;4994787;28;20054;-79
2022/05/17 07:46:31;;;;;;;10.80;7.13;;;;;;;;;;5004101;28;20030;-79
2022/05/17 07:48:57;;;;;;;10.25;7.03;;;;;;;;;;5003682;28;20026;-78
2022/05/17 07:51:23;;;;;;;9.45;6.82;;;;;;;;;;5001953;28;20026;-78
2022/05/17 07:53:49;;;;;;;12.05;7.30;;;;;;;;;;5006834;28;20467;-79
2022/05/17 07:56:15;;;;;;;9.00;6.57;;;;;;;;;;5006731;28;20025;-78
2022/05/17 07:58:42;;;;;;;10.60;6.88;;;;;;;;;;5014709;28;20030;-79
2022/05/17 08:01:09;;;;;;;10.70;6.90;;;;;;;;;;5014474;28;20030;-79
2022/05/17 08:03:35;;;;;;;9.52;6.75;;;;;;;;;;5008525;28;20035;-79
2022/05/17 08:06:01;;;;;;;8.82;6.20;;;;;;;;;;4995665;28;20085;-79
2022/05/17 08:08:28;;;;;;;9.57;6.70;;;;;;;;;;5014191;28;20022;-80
2022/05/17 08:10:54;;;;;;;9.65;6.72;;;;;;;;;;5014458;28;20021;-78
2022/05/17 08:13:21;;;;;;;10.30;7.00;;;;;;;;;;5013688;28;20021;-80
2022/05/17 08:15:48;;;;;;;9.98;6.75;;;;;;;;;;5011244;28;20025;-80
2022/05/17 08:18:14;;;;;;;11.70;7.22;;;;;;;;;;5013137;28;20481;-79
2022/05/17 08:20:41;;;;;;;10.52;8.00;;;;;;;;;;4997723;28;20041;-79
2022/05/17 08:23:07;;;;;;;10.93;7.25;;;;;;;;;;4994915;28;20445;-79
2022/05/17 08:28:18;;;;;;;10.18;7.72;;;;;;;;;;5014201;28;20041;-79
2022/05/17 08:30:46;;;;;;;11.32;7.05;;;;;;;;;;5013274;28;20061;-80
2022/05/17 08:33:20;;;;;;;11.32;8.10;;;;;;;;;;5004738;28;20065;-79
2022/05/17 08:36:12;;;;;;;10.10;7.50;;;;;;;;;;5012364;28;20034;-78
2022/05/17 08:38:43;;;;;;;9.27;7.03;;;;;;;;;;5010181;28;20033;-79
2022/05/17 08:41:12;;;;;;;11.75;7.80;;;;;;;;;;5010582;28;20029;-80
2022/05/17 08:43:41;;;;;;;9.05;6.82;;;;;;;;;;5008550;28;20096;-78
2022/05/17 08:46:10;;;;;;;10.25;7.03;;;;;;;;;;5012304;28;20049;-79
2022/05/17 08:48:43;;;;;;;12.95;7.45;;;;;;;;;;5012830;28;20486;-82
2022/05/17 08:51:12;;;;;;;9.70;7.15;;;;;;;;;;4998818;28;20307;-81
2022/05/17 08:53:39;;;;;;;9.38;6.90;;;;;;;;;;5004169;28;20018;-80
2022/05/17 08:56:06;;;;;;;10.07;7.13;;;;;;;;;;5011407;28;20401;-79
2022/05/17 08:58:33;;;;;;;9.40;6.95;;;;;;;;;;5014081;28;20026;-77
2022/05/17 09:01:13;;;;;;;8.80;6.68;;;;;;;;;;5012910;28;20033;-76
2022/05/17 09:03:39;;;;;;;9.93;6.82;;;;;;;;;;5011634;28;20413;-76
2022/05/17 09:06:18;;;;;;;10.50;6.60;;;;;;;;;;4992228;28;20022;-76
2022/05/17 09:08:47;;;;;;;8.82;5.95;;;;;;;;;;5005560;28;20018;-76
2022/05/17 09:11:16;;;;;;;8.73;5.57;;;;;;;;;;5011084;28;20030;-76
2022/05/17 09:13:53;;;;;;;7.78;5.25;;;;;;;;;;5011361;28;20041;-76
2022/05/17 09:16:21;;;;;;;9.30;5.18;;;;;;;;;;5011656;28;20033;-76
2022/05/17 09:18:48;;;;;;;9.70;5.47;;;;;;;;;;5010370;28;20187;-76
2022/05/17 09:21:30;;;;;;;8.02;4.88;;;;;;;;;;5006803;28;20037;-76
2022/05/17 09:24:02;;;;;;;7.55;5.40;;;;;;;;;;4994238;28;20030;-76
2022/05/17 09:26:29;;;;;;;7.28;4.80;;;;;;;;;;5009294;28;20072;-76
2022/05/17 09:29:13;;;;;;;8.68;5.18;;;;;;;;;;4996197;28;20522;-76
2022/05/17 09:31:39;;;;;;;7.18;4.78;;;;;;;;;;5007570;28;20050;-75
2022/05/17 09:34:08;;;;;;;6.90;5.22;;;;;;;;;;4994832;28;20267;-76
2022/05/17 09:36:42;;;;;;;6.53;4.35;;;;;;;;;;5009801;28;20038;-76
2022/05/17 09:39:08;;;;;;;6.57;4.85;;;;;;;;;;5013160;28;20088;-76
2022/05/17 09:41:38;;;;;;;8.10;5.10;;;;;;;;;;4995080;28;20149;-76
2022/05/17 09:44:30;;;;;;;9.02;4.95;;;;;;;;;;4997112;28;20103;-76
2022/05/17 09:47:19;;;;;;;7.45;5.38;;;;;;;;;;5016052;28;20069;-77
2022/05/17 09:52:34;;;;;;;8.20;4.85;;;;;;;;;;5004054;28;20045;-75
2022/05/17 09:55:09;;;;;;;6.05;4.03;;;;;;;;;;5005857;28;20466;-76
2022/05/17 09:57:36;;;;;;;6.72;4.80;;;;;;;;;;5012067;28;20417;-76
2022/05/17 10:00:04;;;;;;;7.50;5.20;;;;;;;;;;5006887;28;20026;-76
2022/05/17 10:02:35;;;;;;;7.20;4.88;;;;;;;;;;5006795;28;20030;-76
2022/05/17 10:05:10;;;;;;;7.15;5.00;;;;;;;;;;5005186;28;20076;-76
2022/05/17 10:07:36;;;;;;;9.40;5.70;;;;;;;;;;5015639;28;20037;-76
2022/05/17 10:10:09;;;;;;;8.25;6.22;;;;;;;;;;5017474;28;20030;-77
2022/05/17 10:12:38;;;;;;;8.73;5.90;;;;;;;;;;5017257;28;20045;-76
2022/05/17 10:15:11;;;;;;;8.88;6.28;;;;;;;;;;5011572;28;20026;-75
2022/05/17 10:17:52;;;;;;;8.48;5.80;;;;;;;;;;5014618;28;20049;-78
2022/05/17 10:20:23;;;;;;;10.50;6.60;;;;;;;;;;5015068;28;20036;-77
2022/05/17 10:23:01;;;;;;;8.35;6.80;;;;;;;;;;5015228;28;20026;-75
2022/05/17 10:25:47;;;;;;;11.13;7.20;;;;;;;;;;5014400;28;20036;-77
2022/05/17 10:28:17;;;;;;;8.70;6.95;;;;;;;;;;5014379;28;20022;-77
2022/05/17 10:30:54;;;;;;;9.05;6.88;;;;;;;;;;5013437;28;20029;-77
2022/05/17 10:33:26;;;;;;;8.15;7.07;;;;;;;;;;5013582;28;20387;-77
2022/05/17 10:35:57;;;;;;;9.57;6.80;;;;;;;;;;5013713;28;20104;-75
2022/05/17 10:38:26;;;;;;;10.38;6.60;;;;;;;;;;5015013;28;20022;-77
2022/05/17 10:40:53;;;;;;;8.40;5.95;;;;;;;;;;5012691;28;20022;-76
2022/05/17 10:43:32;;;;;;;7.97;5.50;;;;;;;;;;5000624;28;20132;-76
2022/05/17 10:46:08;;;;;;;8.15;5.63;;;;;;;;;;5013370;28;20046;-77
2022/05/17 10:48:44;;;;;;;8.20;5.72;;;;;;;;;;5014908;28;20018;-77
2022/05/17 10:51:22;;;;;;;7.57;6.20;;;;;;;;;;5001052;28;20469;-77
2022/05/17 10:53:59;;;;;;;9.75;6.60;;;;;;;;;;5016277;28;20026;-76
2022/05/17 10:56:29;;;;;;;9.30;7.00;;;;;;;;;;4996774;28;20034;-76
2022/05/17 10:59:06;;;;;;;9.75;7.10;;;;;;;;;;4997773;28;20030;-76
2022/05/17 11:01:32;;;;;;;7.78;5.75;;;;;;;;;;5015425;28;20017;-75
2022/05/17 11:04:01;;;;;;;8.50;6.20;;;;;;;;;;5000688;28;20468;-75
2022/05/17 11:06:33;;;;;;;10.25;6.40;;;;;;;;;;4998850;28;20041;-76
2022/05/17 11:08:59;;;;;;;8.32;6.00;;;;;;;;;;5009650;28;20029;-76
2022/05/17 11:11:38;;;;;;;8.48;6.15;;;;;;;;;;4998054;28;20034;-76
2022/05/17 11:14:24;;;;;;;10.43;7.35;;;;;;;;;;5008338;28;20029;-76
2022/05/17 11:17:09;;;;;;;9.75;7.03;;;;;;;;;;5013185;28;20045;-76
2022/05/17 11:19:40;;;;;;;9.63;6.85;;;;;;;;;;5011371;28;20112;-77
2022/05/17 11:22:06;;;;;;;9.63;7.47;;;;;;;;;;5010414;28;20025;-77
2022/05/17 11:24:33;;;;;;;10.38;7.78;;;;;;;;;;4998228;28;20408;-74
2022/05/17 11:27:03;;;;;;;11.35;8.32;;;;;;;;;;5012685;28;20022;-76
2022/05/17 11:29:44;;;;;;;10.23;8.02;;;;;;;;;;5012164;28;20030;-76
2022/05/17 11:32:16;;;;;;;11.40;9.45;;;;;;;;;;5013264;28;20020;-76
2022/05/17 11:34:46;;;;;;;13.55;9.95;;;;;;;;;;5012579;28;20072;-75
2022/05/17 11:37:31;;;;;;;13.50;10.43;;;;;;;;;;5003928;28;20034;-77
2022/05/17 11:39:57;;;;;;;11.98;9.68;;;;;;;;;;5005337;28;20030;-77
2022/05/17 11:42:36;;;;;;;12.75;10.55;;;;;;;;;;5011693;28;20021;-76
2022/05/17 11:45:17;;;;;;;12.95;9.93;;;;;;;;;;5012300;28;20440;-76
2022/05/17 11:47:43;;;;;;;12.30;9.68;;;;;;;;;;4997201;28;20034;-76
2022/05/17 11:50:16;;;;;;;12.40;9.65;;;;;;;;;;5009337;28;20026;-76
2022/05/17 11:52:46;;;;;;;10.80;8.70;;;;;;;;;;5001355;28;20018;-76
2022/05/17 11:55:23;;;;;;;11.55;8.82;;;;;;;;;;5011454;28;20052;-76
2022/05/17 11:57:49;;;;;;;11.00;8.77;;;;;;;;;;5009606;28;20033;-76
2022/05/17 12:00:24;;;;;;;12.07;9.73;;;;;;;;;;5010100;28;20489;-75
2022/05/17 12:02:52;;;;;;;13.65;9.80;;;;;;;;;;4993109;28;20503;-76
2022/05/17 12:05:37;;;;;;;10.25;8.70;;;;;;;;;;5004665;28;20370;-76
2022/05/17 12:08:22;;;;;;;9.57;7.13;;;;;;;;;;5004624;28;20080;-76
2022/05/17 12:10:48;;;;;;;11.30;8.13;;;;;;;;;;5012319;28;20030;-76
2022/05/17 12:13:16;;;;;;;9.57;7.88;;;;;;;;;;5009846;28;20076;-75
2022/05/17 12:19:40;;;;;;;9.68;7.72;;;;;;;;;;5038930;27;20483;-74
2022/05/17 12:22:15;;;;;;;8.88;7.30;;;;;;;;;;5049393;28;20123;-75
2022/05/17 12:24:58;;;;;;;9.25;7.63;;;;;;;;;;5048497;28;20034;-75
2022/05/17 12:27:24;;;;;;;;;;;;;;;;;;5032357;28;20140;-74
2022/05/17 12:32:40;;;;;;;9.40;8.02;;;;;;;;;;5036967;28;20041;-75
2022/05/17 12:35:08;;;;;;;10.50;8.75;;;;;;;;;;5047607;28;20092;-76
2022/05/17 12:37:38;;;;;;;9.88;8.43;;;;;;;;;;5044125;28;20072;-75
2022/05/17 12:43:02;;;;;;;10.52;8.02;;;;;;;;;;5038540;28;20099;-77
2022/05/17 12:45:30;;;;;;;10.95;8.10;;;;;;;;;;5028964;28;20025;-74
2022/05/17 12:47:57;;;;;;;10.60;7.97;;;;;;;;;;5034893;28;20111;-77
2022/05/17 12:50:40;;;;;;;9.32;7.78;;;;;;;;;;5028357;28;20042;-76
2022/05/17 12:53:06;;;;;;;;;;;;;;;;;;5037400;28;20117;-77
2022/05/17 12:55:32;;;;;;;11.27;8.90;;;;;;;;;;5037474;28;19991;-75
2022/05/17 12:58:15;;;;;;;11.52;8.65;;;;;;;;;;5038757;28;20056;-76
2022/05/17 13:00:41;;;;;;;10.15;8.20;;;;;;;;;;5028543;28;20503;-77
2022/05/17 13:03:16;;;;;;;10.80;8.32;;;;;;;;;;5028149;28;20026;-77
2022/05/17 13:05:43;;;;;;;8.77;7.88;;;;;;;;;;5034000;28;20547;-75
2022/05/17 13:08:12;;;;;;;9.88;7.60;;;;;;;;;;5046649;28;20108;-75
2022/05/17 13:10:39;;;;;;;9.13;7.80;;;;;;;;;;5047092;28;20111;-76
2022/05/17 13:13:16;;;;;;;8.70;7.80;;;;;;;;;;5044612;28;20128;-76
2022/05/17 13:15:44;;;;;;;8.88;7.97;;;;;;;;;;5031927;28;20317;-77
2022/05/17 13:18:11;;;;;;;8.90;7.63;;;;;;;;;;5028934;28;20049;-77
2022/05/17 13:20:37;;;;;;;8.07;7.15;;;;;;;;;;5028420;28;20499;-77
2022/05/17 13:23:05;;;;;;;9.10;8.18;;;;;;;;;;5028160;28;20099;-76
2022/05/17 13:25:41;;;;;;;9.23;7.15;;;;;;;;;;5029017;28;20030;-78
2022/05/17 13:28:08;;;;;;;9.35;7.80;;;;;;;;;;5033301;28;20087;-76
2022/05/17 13:30:36;;;;;;;9.35;7.60;;;;;;;;;;5034673;28;20103;-76
2022/05/17 13:33:03;;;;;;;9.18;7.93;;;;;;;;;;5031767;28;20438;-77
2022/05/17 13:35:31;;;;;;;9.20;7.72;;;;;;;;;;5020750;28;20040;-76
2022/05/17 13:37:59;;;;;;;9.73;7.57;;;;;;;;;;5023488;28;20030;-75
2022/05/17 13:40:34;;;;;;;8.80;7.90;;;;;;;;;;5016952;28;20104;-76
2022/05/17 13:43:00;;;;;;;10.35;7.72;;;;;;;;;;5026906;28;20021;-77
2022/05/17 13:45:30;;;;;;;8.60;7.70;;;;;;;;;;5028854;28;20129;-75
2022/05/17 13:47:57;;;;;;;8.70;7.78;;;;;;;;;;5025202;28;20025;-76
2022/05/17 13:50:25;;;;;;;9.27;7.30;;;;;;;;;;5032746;28;20030;-75
2022/05/17 13:52:55;;;;;;;9.00;7.25;;;;;;;;;;5023898;28;20448;-75
2022/05/17 13:55:29;;;;;;;8.18;6.72;;;;;;;;;;5021003;28;20025;-75
2022/05/17 13:57:57;;;;;;;8.30;7.28;;;;;;;;;;5019485;28;20034;-77
2022/05/17 14:00:24;;;;;;;8.93;7.05;;;;;;;;;;5020096;28;20025;-77
2022/05/17 14:02:51;;;;;;;7.63;6.40;;;;;;;;;;5032965;28;20029;-77
2022/05/17 14:05:32;;;;;;;8.32;6.43;;;;;;;;;;5028590;28;20558;-77
2022/05/17 14:13:53;;;;;;;7.05;5.82;;;;;;;;;;5031833;28;20826;-78
2022/05/17 14:16:21;;;;;;;6.25;5.18;;;;;;;;;;5029902;28;20396;-77
2022/05/17 14:18:48;;;;;;;7.45;5.65;;;;;;;;;;5021764;28;20045;-74
2022/05/17 14:21:17;;;;;;;8.63;5.95;;;;;;;;;;5034472;28;20029;-77
2022/05/17 14:23:46;;;;;;;7.40;5.53;;;;;;;;;;5028957;28;20064;-78
2022/05/17 14:26:12;;;;;;;7.53;6.07;;;;;;;;;;5015445;28;20118;-76
2022/05/17 14:28:39;;;;;;;6.82;5.55;;;;;;;;;;5028562;28;20382;-77
2022/05/17 14:31:07;;;;;;;7.55;5.57;;;;;;;;;;5015312;28;20076;-80
2022/05/17 14:33:33;;;;;;;6.97;5.70;;;;;;;;;;5014349;28;20033;-76
2022/05/17 14:36:00;;;;;;;7.32;5.88;;;;;;;;;;5014888;28;20464;-78
2022/05/17 14:38:26;;;;;;;7.63;5.38;;;;;;;;;;5013490;28;20104;-78
2022/05/17 14:40:52;;;;;;;13.27;7.90;;;;;;;;;;5028050;28;20060;-78
2022/05/17 14:43:19;;;;;;;12.45;8.25;;;;;;;;;;5030336;28;20526;-76
2022/05/17 14:45:50;;;;;;;8.02;6.60;;;;;;;;;;5034541;28;20029;-79
2022/05/17 14:48:19;;;;;;;12.10;9.02;;;;;;;;;;5034188;28;20025;-80
2022/05/17 14:50:46;;;;;;;11.80;9.65;;;;;;;;;;5029621;28;20026;-81
2022/05/17 14:53:12;;;;;;;14.52;10.05;;;;;;;;;;5029741;28;20049;-80
2022/05/17 14:55:39;;;;;;;12.80;9.60;;;;;;;;;;5024026;28;20612;-80
2022/05/17 14:58:05;;;;;;;8.85;6.80;;;;;;;;;;5031180;28;20102;-82
2022/05/17 15:00:31;;;;;;;9.65;7.30;;;;;;;;;;5023794;28;20483;-80
2022/05/17 15:02:59;;;;;;;9.25;7.00;;;;;;;;;;5018333;28;20034;-81
2022/05/17 15:05:26;;;;;;;9.10;6.43;;;;;;;;;;5035369;28;20030;-81
2022/05/17 15:07:53;;;;;;;7.53;6.00;;;;;;;;;;5034649;28;20033;-82
2022/05/17 15:10:21;;;;;;;8.30;6.28;;;;;;;;;;5033715;28;20029;-81
2022/05/17 15:12:48;;;;;;;8.32;6.10;;;;;;;;;;5020139;28;20061;-82